createdAt,value
2018-11-01T00:00:04.768Z,6.18
2018-11-01T00:01:04.733Z,6.18
2018-11-01T00:02:04.736Z,6.66
2018-11-01T00:03:04.724Z,7.07
2018-11-01T00:04:04.723Z,6.81
2018-11-01T00:05:04.740Z,7.32
2018-11-01T00:06:04.705Z,7.35
2018-11-01T00:07:04.709Z,7.08
2018-11-01T00:08:04.697Z,7.02
2018-11-01T00:09:04.724Z,6.94
2018-11-01T00:10:04.687Z,6.81
2018-11-01T00:11:04.718Z,6.69
2018-11-01T00:12:04.672Z,6.61
2018-11-01T00:13:04.672Z,6.44
2018-11-01T00:14:04.669Z,6.32
2018-11-01T00:15:04.692Z,6.28
2018-11-01T00:16:04.657Z,6.28
2018-11-01T00:17:04.648Z,6.09
2018-11-01T00:18:04.645Z,6.11
2018-11-01T00:19:04.637Z,6.11
2018-11-01T00:20:04.664Z,5.89
2018-11-01T00:21:04.629Z,5.82
2018-11-01T00:22:04.631Z,5.83
2018-11-01T00:23:04.621Z,5.78
2018-11-01T00:24:04.619Z,5.77
2018-11-01T00:25:04.637Z,5.92
2018-11-01T00:26:04.607Z,5.95
2018-11-01T00:27:04.600Z,5.82
2018-11-01T00:28:04.597Z,5.78
2018-11-01T00:29:04.593Z,5.83
2018-11-01T00:30:04.612Z,5.77
2018-11-01T00:31:04.583Z,5.68
2018-11-01T00:32:04.573Z,5.74
2018-11-01T00:33:04.575Z,5.71
2018-11-01T00:34:04.566Z,5.66
2018-11-01T00:35:04.586Z,5.64
2018-11-01T00:36:04.557Z,5.63
2018-11-01T00:37:04.551Z,5.59
2018-11-01T00:38:04.544Z,5.60
2018-11-01T00:39:04.546Z,5.59
2018-11-01T00:40:04.563Z,5.66
2018-11-01T00:41:04.529Z,5.73
2018-11-01T00:42:04.526Z,5.66
2018-11-01T00:43:04.521Z,5.57
2018-11-01T00:44:04.518Z,5.59
2018-11-01T00:45:04.537Z,5.56
2018-11-01T00:46:04.506Z,5.57
2018-11-01T00:47:04.498Z,5.56
2018-11-01T00:48:04.497Z,5.57
2018-11-01T00:49:04.489Z,5.57
2018-11-01T00:50:04.514Z,5.57
2018-11-01T00:51:04.485Z,5.63
2018-11-01T00:52:04.477Z,5.55
2018-11-01T00:53:04.469Z,5.53
2018-11-01T00:54:04.465Z,5.37
2018-11-01T00:55:04.489Z,5.28
2018-11-01T00:56:04.454Z,5.16
2018-11-01T00:57:04.449Z,5.07
2018-11-01T00:58:04.445Z,4.94
2018-11-01T00:59:04.437Z,4.98
2018-11-01T01:00:04.461Z,4.79
2018-11-01T01:01:04.425Z,4.80
2018-11-01T01:02:04.485Z,4.80
2018-11-01T01:03:04.424Z,4.73
2018-11-01T01:04:04.417Z,4.64
2018-11-01T01:05:04.437Z,4.73
2018-11-01T01:06:04.405Z,4.65
2018-11-01T01:07:04.397Z,4.69
2018-11-01T01:08:04.393Z,4.67
2018-11-01T01:09:04.389Z,4.65
2018-11-01T01:10:04.409Z,4.76
2018-11-01T01:11:04.376Z,4.72
2018-11-01T01:12:04.374Z,4.72
2018-11-01T01:13:04.365Z,4.73
2018-11-01T01:14:04.362Z,4.52
2018-11-01T01:15:04.385Z,4.54
2018-11-01T01:16:04.349Z,4.46
2018-11-01T01:17:04.347Z,4.46
2018-11-01T01:18:04.340Z,4.43
2018-11-01T01:19:04.388Z,4.51
2018-11-01T01:20:04.368Z,4.52
2018-11-01T01:21:04.328Z,4.42
2018-11-01T01:22:04.330Z,4.37
2018-11-01T01:23:04.309Z,4.42
2018-11-01T01:24:04.309Z,4.43
2018-11-01T01:25:04.329Z,4.44
2018-11-01T01:26:04.327Z,4.42
2018-11-01T01:27:04.294Z,4.42
2018-11-01T01:28:04.291Z,4.50
2018-11-01T01:29:04.282Z,4.50
2018-11-01T01:30:04.278Z,4.40
2018-11-01T01:31:04.301Z,4.42
2018-11-01T01:32:04.266Z,4.36
2018-11-01T01:33:04.250Z,4.36
2018-11-01T01:34:04.254Z,4.39
2018-11-01T01:35:04.277Z,4.42
2018-11-01T01:36:04.252Z,4.39
2018-11-01T01:37:04.238Z,4.33
2018-11-01T01:38:04.232Z,4.33
2018-11-01T01:39:04.226Z,4.33
2018-11-01T01:40:04.250Z,4.28
2018-11-01T01:41:04.246Z,4.25
2018-11-01T01:42:04.208Z,4.16
2018-11-01T01:43:04.206Z,4.18
2018-11-01T01:44:04.198Z,4.15
2018-11-01T01:45:04.194Z,4.14
2018-11-01T01:46:04.221Z,4.10
2018-11-01T01:47:04.182Z,4.07
2018-11-01T01:48:04.178Z,4.06
2018-11-01T01:49:04.170Z,3.98
2018-11-01T01:50:04.165Z,3.92
2018-11-01T01:51:04.182Z,3.88
2018-11-01T01:52:04.154Z,3.92
2018-11-01T01:53:04.150Z,3.92
2018-11-01T01:54:04.149Z,3.88
2018-11-01T01:55:04.138Z,3.88
2018-11-01T01:56:04.162Z,3.97
2018-11-01T01:57:04.130Z,3.94
2018-11-01T01:58:04.123Z,3.92
2018-11-01T01:59:04.114Z,3.97
2018-11-01T02:00:04.110Z,4.08
2018-11-01T02:01:04.134Z,4.14
2018-11-01T02:02:04.098Z,4.10
2018-11-01T02:03:04.093Z,4.19
2018-11-01T02:04:04.086Z,4.19
2018-11-01T02:05:04.090Z,4.21
2018-11-01T02:06:04.101Z,4.33
2018-11-01T02:07:04.070Z,4.24
2018-11-01T02:08:04.071Z,4.34
2018-11-01T02:09:04.058Z,4.36
2018-11-01T02:10:04.052Z,4.39
2018-11-01T02:11:04.076Z,4.32
2018-11-01T02:12:04.042Z,4.40
2018-11-01T02:13:04.034Z,4.54
2018-11-01T02:14:04.031Z,4.43
2018-11-01T02:15:04.027Z,4.50
2018-11-01T02:16:04.050Z,4.52
2018-11-01T02:17:04.015Z,4.50
2018-11-01T02:18:04.006Z,4.57
2018-11-01T02:19:04.002Z,4.47
2018-11-01T02:20:03.999Z,4.55
2018-11-01T02:21:04.019Z,4.37
2018-11-01T02:22:03.987Z,4.42
2018-11-01T02:23:03.979Z,4.40
2018-11-01T02:24:03.978Z,4.39
2018-11-01T02:25:03.973Z,4.40
2018-11-01T02:26:03.990Z,4.40
2018-11-01T02:27:03.958Z,4.57
2018-11-01T02:28:03.950Z,4.52
2018-11-01T02:29:03.946Z,4.54
2018-11-01T02:30:03.944Z,4.52
2018-11-01T02:31:03.963Z,4.42
2018-11-01T02:32:03.931Z,4.52
2018-11-01T02:33:03.924Z,4.47
2018-11-01T02:34:03.923Z,4.50
2018-11-01T02:35:03.915Z,4.40
2018-11-01T02:36:03.935Z,4.43
2018-11-01T02:37:03.901Z,4.40
2018-11-01T02:38:03.920Z,4.37
2018-11-01T02:39:03.891Z,4.42
2018-11-01T02:40:03.882Z,4.50
2018-11-01T02:41:03.907Z,4.52
2018-11-01T02:42:03.872Z,4.54
2018-11-01T02:43:03.867Z,4.46
2018-11-01T02:44:03.868Z,4.47
2018-11-01T02:45:03.861Z,4.46
2018-11-01T02:46:03.892Z,4.47
2018-11-01T02:47:03.849Z,4.37
2018-11-01T02:48:03.842Z,4.42
2018-11-01T02:49:03.836Z,4.34
2018-11-01T02:50:03.833Z,4.24
2018-11-01T02:51:03.852Z,4.16
2018-11-01T02:52:03.815Z,4.10
2018-11-01T02:53:03.812Z,4.12
2018-11-01T02:54:03.807Z,4.14
2018-11-01T02:55:03.801Z,4.08
2018-11-01T02:56:03.824Z,4.08
2018-11-01T02:57:03.787Z,3.98
2018-11-01T02:58:03.783Z,3.88
2018-11-01T02:59:03.779Z,3.88
2018-11-01T03:00:03.772Z,3.94
2018-11-01T03:01:03.795Z,4.08
2018-11-01T03:02:03.767Z,4.12
2018-11-01T03:03:03.757Z,4.06
2018-11-01T03:04:03.747Z,3.98
2018-11-01T03:05:03.771Z,3.94
2018-11-01T03:06:03.739Z,3.94
2018-11-01T03:07:03.731Z,3.89
2018-11-01T03:08:03.726Z,3.90
2018-11-01T03:09:03.719Z,3.96
2018-11-01T03:10:03.745Z,3.89
2018-11-01T03:11:03.714Z,3.80
2018-11-01T03:12:03.703Z,3.94
2018-11-01T03:13:03.698Z,3.83
2018-11-01T03:14:03.691Z,3.82
2018-11-01T03:15:03.720Z,3.79
2018-11-01T03:16:03.679Z,3.82
2018-11-01T03:17:03.777Z,3.92
2018-11-01T03:18:03.666Z,3.90
2018-11-01T03:19:03.664Z,3.96
2018-11-01T03:20:03.690Z,4.00
2018-11-01T03:21:04.619Z,4.12
2018-11-01T03:22:03.643Z,4.04
2018-11-01T03:23:04.757Z,4.00
2018-11-01T03:24:03.631Z,4.07
2018-11-01T03:25:03.660Z,4.10
2018-11-01T03:26:03.616Z,4.00
2018-11-01T03:27:03.618Z,3.98
2018-11-01T03:28:03.612Z,3.96
2018-11-01T03:29:03.607Z,4.01
2018-11-01T03:30:03.623Z,4.12
2018-11-01T03:31:03.616Z,4.08
2018-11-01T03:32:03.601Z,4.19
2018-11-01T03:33:03.581Z,4.04
2018-11-01T03:34:03.579Z,4.04
2018-11-01T03:35:03.596Z,3.89
2018-11-01T03:36:03.757Z,3.92
2018-11-01T03:37:03.556Z,3.97
2018-11-01T03:38:03.641Z,4.16
2018-11-01T03:39:03.643Z,4.04
2018-11-01T03:40:03.569Z,4.15
2018-11-01T03:41:03.536Z,4.16
2018-11-01T03:42:03.527Z,4.07
2018-11-01T03:43:03.527Z,4.04
2018-11-01T03:44:03.515Z,4.10
2018-11-01T03:45:03.512Z,4.12
2018-11-01T03:46:03.535Z,4.15
2018-11-01T03:47:03.500Z,4.15
2018-11-01T03:48:03.497Z,4.18
2018-11-01T03:49:03.488Z,4.18
2018-11-01T03:50:03.482Z,4.14
2018-11-01T03:51:03.503Z,4.12
2018-11-01T03:52:03.532Z,4.10
2018-11-01T03:53:03.464Z,4.16
2018-11-01T03:54:03.459Z,4.19
2018-11-01T03:55:03.450Z,4.10
2018-11-01T03:56:03.475Z,4.06
2018-11-01T03:57:03.441Z,4.06
2018-11-01T03:58:03.440Z,4.03
2018-11-01T03:59:03.985Z,3.97
2018-11-01T04:00:03.420Z,4.01
2018-11-01T04:01:03.416Z,4.15
2018-11-01T04:02:03.437Z,4.19
2018-11-01T04:03:03.406Z,4.18
2018-11-01T04:04:03.398Z,4.18
2018-11-01T04:05:03.392Z,4.21
2018-11-01T04:06:03.394Z,4.08
2018-11-01T04:07:03.440Z,4.04
2018-11-01T04:08:03.372Z,3.98
2018-11-01T04:09:03.377Z,3.89
2018-11-01T04:10:03.360Z,3.94
2018-11-01T04:11:03.371Z,3.86
2018-11-01T04:12:03.384Z,4.01
2018-11-01T04:13:03.354Z,3.90
2018-11-01T04:14:03.338Z,3.96
2018-11-01T04:15:03.369Z,3.85
2018-11-01T04:16:03.330Z,3.88
2018-11-01T04:17:03.366Z,3.79
2018-11-01T04:18:03.316Z,3.68
2018-11-01T04:19:03.362Z,3.64
2018-11-01T04:20:03.305Z,3.65
2018-11-01T04:21:03.328Z,3.60
2018-11-01T04:22:03.292Z,3.70
2018-11-01T04:23:03.344Z,3.54
2018-11-01T04:24:03.281Z,3.53
2018-11-01T04:25:03.277Z,3.39
2018-11-01T04:26:03.301Z,3.46
2018-11-01T04:27:03.290Z,3.42
2018-11-01T04:28:03.257Z,3.43
2018-11-01T04:29:03.335Z,3.44
2018-11-01T04:30:03.246Z,3.43
2018-11-01T04:31:03.245Z,3.54
2018-11-01T04:32:03.263Z,3.65
2018-11-01T04:33:03.285Z,3.76
2018-11-01T04:34:03.225Z,3.80
2018-11-01T04:35:03.215Z,3.78
2018-11-01T04:36:03.248Z,3.82
2018-11-01T04:37:03.202Z,3.94
2018-11-01T04:38:03.196Z,3.98
2018-11-01T04:39:03.193Z,4.06
2018-11-01T04:40:03.184Z,4.03
2018-11-01T04:41:03.208Z,3.92
2018-11-01T04:42:03.171Z,4.03
2018-11-01T04:43:03.187Z,3.97
2018-11-01T04:44:03.177Z,3.79
2018-11-01T04:45:03.178Z,3.72
2018-11-01T04:46:03.179Z,3.54
2018-11-01T04:47:03.148Z,3.58
2018-11-01T04:48:03.232Z,3.43
2018-11-01T04:49:03.132Z,3.31
2018-11-01T04:50:03.127Z,3.40
2018-11-01T04:51:03.146Z,3.30
2018-11-01T04:52:03.115Z,3.30
2018-11-01T04:53:03.103Z,3.42
2018-11-01T04:54:03.103Z,3.53
2018-11-01T04:55:03.093Z,3.60
2018-11-01T04:56:03.117Z,3.47
2018-11-01T04:57:03.080Z,3.57
2018-11-01T04:58:03.077Z,3.60
2018-11-01T04:59:03.069Z,3.68
2018-11-01T05:00:03.064Z,3.68
2018-11-01T05:01:03.083Z,3.60
2018-11-01T05:02:03.053Z,3.70
2018-11-01T05:03:03.064Z,3.53
2018-11-01T05:04:03.042Z,3.53
2018-11-01T05:05:03.099Z,3.57
2018-11-01T05:06:03.069Z,3.46
2018-11-01T05:07:03.058Z,3.42
2018-11-01T05:08:03.022Z,3.33
2018-11-01T05:09:03.010Z,3.33
2018-11-01T05:10:03.003Z,3.40
2018-11-01T05:11:02.998Z,3.36
2018-11-01T05:12:03.021Z,3.31
2018-11-01T05:13:02.986Z,3.30
2018-11-01T05:14:02.974Z,3.24
2018-11-01T05:15:02.999Z,3.18
2018-11-01T05:16:02.965Z,3.24
2018-11-01T05:17:02.989Z,3.31
2018-11-01T05:18:02.949Z,3.24
2018-11-01T05:19:02.951Z,3.20
2018-11-01T05:20:02.948Z,3.23
2018-11-01T05:21:02.933Z,3.16
2018-11-01T05:22:02.958Z,3.15
2018-11-01T05:23:02.921Z,3.15
2018-11-01T05:24:02.913Z,3.15
2018-11-01T05:25:02.911Z,3.18
2018-11-01T05:26:03.071Z,3.18
2018-11-01T05:27:02.930Z,3.16
2018-11-01T05:28:02.890Z,3.27
2018-11-01T05:29:02.887Z,3.23
2018-11-01T05:30:02.881Z,3.18
2018-11-01T05:31:02.873Z,3.27
2018-11-01T05:32:02.892Z,3.28
2018-11-01T05:33:02.858Z,3.27
2018-11-01T05:34:02.850Z,3.23
2018-11-01T05:35:02.851Z,3.15
2018-11-01T05:36:02.863Z,3.27
2018-11-01T05:37:02.835Z,3.27
2018-11-01T05:38:02.920Z,3.15
2018-11-01T05:39:02.822Z,3.16
2018-11-01T05:40:02.818Z,3.10
2018-11-01T05:41:02.815Z,3.10
2018-11-01T05:42:02.823Z,2.98
2018-11-01T05:43:02.828Z,3.13
2018-11-01T05:44:02.785Z,3.27
2018-11-01T05:45:02.790Z,3.27
2018-11-01T05:46:02.773Z,3.27
2018-11-01T05:47:02.779Z,3.28
2018-11-01T05:48:02.798Z,3.33
2018-11-01T05:49:02.757Z,3.34
2018-11-01T05:50:03.618Z,3.49
2018-11-01T05:51:02.790Z,3.46
2018-11-01T05:52:03.503Z,3.40
2018-11-01T05:53:04.540Z,3.34
2018-11-01T05:54:02.729Z,3.27
2018-11-01T05:55:02.724Z,3.25
2018-11-01T05:56:02.715Z,3.36
2018-11-01T05:57:02.712Z,3.30
2018-11-01T05:58:02.727Z,3.30
2018-11-01T05:59:02.703Z,3.18
2018-11-01T06:00:02.747Z,3.10
2018-11-01T06:01:02.687Z,3.00
2018-11-01T06:02:02.708Z,2.98
2018-11-01T06:03:02.819Z,2.98
2018-11-01T06:04:02.666Z,2.81
2018-11-01T06:05:02.662Z,2.74
2018-11-01T06:06:02.654Z,2.64
2018-11-01T06:07:02.674Z,2.67
2018-11-01T06:08:02.638Z,2.53
2018-11-01T06:09:02.639Z,2.49
2018-11-01T06:10:02.629Z,2.34
2018-11-01T06:11:02.623Z,2.30
2018-11-01T06:12:02.642Z,2.26
2018-11-01T06:13:02.610Z,2.33
2018-11-01T06:14:02.602Z,2.30
2018-11-01T06:15:02.598Z,2.41
2018-11-01T06:16:02.587Z,2.44
2018-11-01T06:17:02.611Z,2.23
2018-11-01T06:18:02.602Z,2.34
2018-11-01T06:19:02.572Z,2.33
2018-11-01T06:20:02.562Z,2.28
2018-11-01T06:21:02.563Z,2.31
2018-11-01T06:22:02.548Z,2.37
2018-11-01T06:23:02.572Z,2.34
2018-11-01T06:24:02.536Z,2.34
2018-11-01T06:25:02.551Z,2.38
2018-11-01T06:26:02.524Z,2.28
2018-11-01T06:27:02.546Z,2.37
2018-11-01T06:28:02.511Z,2.30
2018-11-01T06:29:02.503Z,2.34
2018-11-01T06:30:02.980Z,2.55
2018-11-01T06:31:02.497Z,2.51
2018-11-01T06:32:02.509Z,2.44
2018-11-01T06:33:02.483Z,2.59
2018-11-01T06:34:02.467Z,2.63
2018-11-01T06:35:02.469Z,2.77
2018-11-01T06:36:02.486Z,2.79
2018-11-01T06:37:02.478Z,2.73
2018-11-01T06:38:02.445Z,2.74
2018-11-01T06:39:02.437Z,2.70
2018-11-01T06:40:02.438Z,2.79
2018-11-01T06:41:02.422Z,2.71
2018-11-01T06:42:02.447Z,2.77
2018-11-01T06:43:02.438Z,2.95
2018-11-01T06:44:02.407Z,2.95
2018-11-01T06:45:02.406Z,3.02
2018-11-01T06:46:02.424Z,3.12
2018-11-01T06:47:02.394Z,3.27
2018-11-01T06:48:02.378Z,3.49
2018-11-01T06:49:02.376Z,3.83
2018-11-01T06:50:02.370Z,3.92
2018-11-01T06:51:02.391Z,4.14
2018-11-01T06:52:02.359Z,4.14
2018-11-01T06:53:02.357Z,3.97
2018-11-01T06:54:02.346Z,4.14
2018-11-01T06:55:02.343Z,4.40
2018-11-01T06:56:02.358Z,4.44
2018-11-01T06:57:02.328Z,4.69
2018-11-01T06:58:02.325Z,4.73
2018-11-01T06:59:02.347Z,4.83
2018-11-01T07:00:02.316Z,4.84
2018-11-01T07:01:02.330Z,4.86
2018-11-01T07:02:02.302Z,4.83
2018-11-01T07:03:02.294Z,4.86
2018-11-01T07:04:02.286Z,4.80
2018-11-01T07:05:02.280Z,4.77
2018-11-01T07:06:02.302Z,4.55
2018-11-01T07:07:02.268Z,4.61
2018-11-01T07:08:02.266Z,4.58
2018-11-01T07:09:02.261Z,4.64
2018-11-01T07:10:02.254Z,4.76
2018-11-01T07:11:02.271Z,4.94
2018-11-01T07:12:02.246Z,5.13
2018-11-01T07:13:02.244Z,5.25
2018-11-01T07:14:02.231Z,5.48
2018-11-01T07:15:02.230Z,5.71
2018-11-01T07:16:02.250Z,6.09
2018-11-01T07:17:02.308Z,6.65
2018-11-01T07:18:02.212Z,6.79
2018-11-01T07:19:02.208Z,7.44
2018-11-01T07:20:02.199Z,7.97
2018-11-01T07:21:02.230Z,8.65
2018-11-01T07:22:02.194Z,9.18
2018-11-01T07:23:02.197Z,9.49
2018-11-01T07:24:02.188Z,9.96
2018-11-01T07:25:02.189Z,10.18
2018-11-01T07:26:02.333Z,10.56
2018-11-01T07:27:02.184Z,10.71
2018-11-01T07:28:02.179Z,11.11
2018-11-01T07:29:02.178Z,11.32
2018-11-01T07:30:02.176Z,11.75
2018-11-01T07:31:02.207Z,11.27
2018-11-01T07:32:02.180Z,11.24
2018-11-01T07:33:02.207Z,11.61
2018-11-01T07:34:02.168Z,11.89
2018-11-01T07:35:02.196Z,12.24
2018-11-01T07:36:02.173Z,12.66
2018-11-01T07:37:02.202Z,13.17
2018-11-01T07:38:02.172Z,13.74
2018-11-01T07:39:02.171Z,14.02
2018-11-01T07:40:02.303Z,14.09
2018-11-01T07:41:02.203Z,14.43
2018-11-01T07:42:02.183Z,14.57
2018-11-01T07:43:02.179Z,14.71
2018-11-01T07:44:02.183Z,14.61
2018-11-01T07:45:02.180Z,14.47
2018-11-01T07:46:02.211Z,14.29
2018-11-01T07:47:02.188Z,14.02
2018-11-01T07:48:02.187Z,13.62
2018-11-01T07:49:02.191Z,13.36
2018-11-01T07:50:02.193Z,13.40
2018-11-01T07:51:02.222Z,13.33
2018-11-01T07:52:02.196Z,13.54
2018-11-01T07:53:02.292Z,13.56
2018-11-01T07:54:02.208Z,13.98
2018-11-01T07:55:02.208Z,14.17
2018-11-01T07:56:02.237Z,14.72
2018-11-01T07:57:02.215Z,14.83
2018-11-01T07:58:02.220Z,13.76
2018-11-01T07:59:02.221Z,12.71
2018-11-01T08:00:02.224Z,12.44
2018-11-01T08:01:02.262Z,12.23
2018-11-01T08:02:02.236Z,12.24
2018-11-01T08:03:02.239Z,11.99
2018-11-01T08:04:02.248Z,11.99
2018-11-01T08:05:02.247Z,12.08
2018-11-01T08:06:02.377Z,12.39
2018-11-01T08:07:02.260Z,12.62
2018-11-01T08:08:02.255Z,12.81
2018-11-01T08:09:02.268Z,13.00
2018-11-01T08:10:02.272Z,13.22
2018-11-01T08:11:02.299Z,13.36
2018-11-01T08:12:02.285Z,13.27
2018-11-01T08:13:02.284Z,13.11
2018-11-01T08:14:02.287Z,12.81
2018-11-01T08:15:02.290Z,12.66
2018-11-01T08:16:02.320Z,12.44
2018-11-01T08:17:02.299Z,12.20
2018-11-01T08:18:02.306Z,12.02
2018-11-01T08:19:02.310Z,11.75
2018-11-01T08:20:02.450Z,11.44
2018-11-01T08:21:02.441Z,10.94
2018-11-01T08:22:02.316Z,10.18
2018-11-01T08:23:02.471Z,9.93
2018-11-01T08:24:02.311Z,9.86
2018-11-01T08:25:02.319Z,9.99
2018-11-01T08:26:02.348Z,9.88
2018-11-01T08:27:02.330Z,9.83
2018-11-01T08:28:02.359Z,9.39
2018-11-01T08:29:02.343Z,9.43
2018-11-01T08:30:02.330Z,9.30
2018-11-01T08:31:02.356Z,9.30
2018-11-01T08:32:02.332Z,9.45
2018-11-01T08:33:02.333Z,9.58
2018-11-01T08:34:02.325Z,9.63
2018-11-01T08:35:02.359Z,9.78
2018-11-01T08:36:02.328Z,10.01
2018-11-01T08:37:02.329Z,10.07
2018-11-01T08:38:02.333Z,10.17
2018-11-01T08:39:02.331Z,10.28
2018-11-01T08:40:02.351Z,10.28
2018-11-01T08:41:02.401Z,10.26
2018-11-01T08:42:02.333Z,10.32
2018-11-01T08:43:02.331Z,10.30
2018-11-01T08:44:02.331Z,10.21
2018-11-01T08:45:02.324Z,10.30
2018-11-01T08:46:02.355Z,10.42
2018-11-01T08:47:02.327Z,10.58
2018-11-01T08:48:02.327Z,10.70
2018-11-01T08:49:02.332Z,11.03
2018-11-01T08:50:02.416Z,11.09
2018-11-01T08:51:02.328Z,11.27
2018-11-01T08:52:02.328Z,11.32
2018-11-01T08:53:02.355Z,11.65
2018-11-01T08:54:02.355Z,11.90
2018-11-01T08:55:02.327Z,12.13
2018-11-01T08:56:02.411Z,12.27
2018-11-01T08:57:02.335Z,12.54
2018-11-01T08:58:02.328Z,12.64
2018-11-01T08:59:02.404Z,12.96
2018-11-01T09:00:02.328Z,12.74
2018-11-01T09:01:02.355Z,12.71
2018-11-01T09:02:02.327Z,12.77
2018-11-01T09:03:02.328Z,12.69
2018-11-01T09:04:02.345Z,12.63
2018-11-01T09:05:02.332Z,12.51
2018-11-01T09:06:02.363Z,12.42
2018-11-01T09:07:02.339Z,12.42
2018-11-01T09:08:02.387Z,12.20
2018-11-01T09:09:02.339Z,12.39
2018-11-01T09:10:02.340Z,12.33
2018-11-01T09:11:02.368Z,12.12
2018-11-01T09:12:02.340Z,12.13
2018-11-01T09:13:02.405Z,12.12
2018-11-01T09:14:02.340Z,12.33
2018-11-01T09:15:02.372Z,12.33
2018-11-01T09:16:02.350Z,12.38
2018-11-01T09:17:02.343Z,12.71
2018-11-01T09:18:02.347Z,13.18
2018-11-01T09:19:02.362Z,13.51
2018-11-01T09:20:02.376Z,13.71
2018-11-01T09:21:02.357Z,13.95
2018-11-01T09:22:02.365Z,14.13
2018-11-01T09:23:02.368Z,14.14
2018-11-01T09:24:02.359Z,14.21
2018-11-01T09:25:02.392Z,14.38
2018-11-01T09:26:02.364Z,14.47
2018-11-01T09:27:03.198Z,14.67
2018-11-01T09:28:02.368Z,14.57
2018-11-01T09:29:02.369Z,14.60
2018-11-01T09:30:02.402Z,14.62
2018-11-01T09:31:02.373Z,14.60
2018-11-01T09:32:02.376Z,14.49
2018-11-01T09:33:02.478Z,14.50
2018-11-01T09:34:02.392Z,14.49
2018-11-01T09:35:02.419Z,14.47
2018-11-01T09:36:02.390Z,14.46
2018-11-01T09:37:02.387Z,14.21
2018-11-01T09:38:02.392Z,13.94
2018-11-01T09:39:04.506Z,13.89
2018-11-01T09:40:02.426Z,13.87
2018-11-01T09:41:03.371Z,13.91
2018-11-01T09:42:02.439Z,13.94
2018-11-01T09:43:02.409Z,13.83
2018-11-01T09:44:02.404Z,13.84
2018-11-01T09:45:02.437Z,13.67
2018-11-01T09:46:02.523Z,13.49
2018-11-01T09:47:02.859Z,13.30
2018-11-01T09:48:02.411Z,13.07
2018-11-01T09:49:02.417Z,12.96
2018-11-01T09:50:02.458Z,12.95
2018-11-01T09:51:02.420Z,12.71
2018-11-01T09:52:02.424Z,12.41
2018-11-01T09:53:02.420Z,12.01
2018-11-01T09:54:02.416Z,11.71
2018-11-01T09:55:02.447Z,11.74
2018-11-01T09:56:02.486Z,11.62
2018-11-01T09:57:02.424Z,11.64
2018-11-01T09:58:02.421Z,11.77
2018-11-01T09:59:02.424Z,12.06
2018-11-01T10:00:02.452Z,12.21
2018-11-01T10:01:03.570Z,12.15
2018-11-01T10:02:02.428Z,12.23
2018-11-01T10:03:02.429Z,12.51
2018-11-01T10:04:02.429Z,12.63
2018-11-01T10:05:02.459Z,12.78
2018-11-01T10:06:02.488Z,12.92
2018-11-01T10:07:02.548Z,12.87
2018-11-01T10:08:02.430Z,12.82
2018-11-01T10:09:02.433Z,12.77
2018-11-01T10:10:03.582Z,12.62
2018-11-01T10:11:02.474Z,12.67
2018-11-01T10:12:02.429Z,12.67
2018-11-01T10:13:02.437Z,12.84
2018-11-01T10:14:02.442Z,12.88
2018-11-01T10:15:02.463Z,12.89
2018-11-01T10:16:02.591Z,13.06
2018-11-01T10:17:02.708Z,13.15
2018-11-01T10:18:02.750Z,13.07
2018-11-01T10:19:03.151Z,12.99
2018-11-01T10:20:02.441Z,13.07
2018-11-01T10:21:02.461Z,13.25
2018-11-01T10:22:02.466Z,13.37
2018-11-01T10:23:02.458Z,13.33
2018-11-01T10:24:02.441Z,13.38
2018-11-01T10:25:02.435Z,13.36
2018-11-01T10:26:02.467Z,13.33
2018-11-01T10:27:03.149Z,13.21
2018-11-01T10:28:02.430Z,13.24
2018-11-01T10:29:02.431Z,13.20
2018-11-01T10:30:02.427Z,13.18
2018-11-01T10:31:02.457Z,13.06
2018-11-01T10:32:02.431Z,13.07
2018-11-01T10:33:02.436Z,13.00
2018-11-01T10:34:02.499Z,13.11
2018-11-01T10:35:02.438Z,13.07
2018-11-01T10:36:03.515Z,13.17
2018-11-01T10:37:04.015Z,13.21
2018-11-01T10:38:02.429Z,13.22
2018-11-01T10:39:02.431Z,13.20
2018-11-01T10:40:02.430Z,13.24
2018-11-01T10:41:02.450Z,13.25
2018-11-01T10:42:02.435Z,13.36
2018-11-01T10:43:02.548Z,13.30
2018-11-01T10:44:02.430Z,13.15
2018-11-01T10:45:02.672Z,13.17
2018-11-01T10:46:02.455Z,13.17
2018-11-01T10:47:02.430Z,13.07
2018-11-01T10:48:02.434Z,13.06
2018-11-01T10:49:02.426Z,13.02
2018-11-01T10:50:02.426Z,13.06
2018-11-01T10:51:02.460Z,12.96
2018-11-01T10:52:02.429Z,13.07
2018-11-01T10:53:02.463Z,13.02
2018-11-01T10:54:03.409Z,12.87
2018-11-01T10:55:02.431Z,12.84
2018-11-01T10:56:02.455Z,12.81
2018-11-01T10:57:02.422Z,12.75
2018-11-01T10:58:02.430Z,12.64
2018-11-01T10:59:02.423Z,12.70
2018-11-01T11:00:02.494Z,12.57
2018-11-01T11:01:02.508Z,12.64
2018-11-01T11:02:02.418Z,12.48
2018-11-01T11:03:02.426Z,12.51
2018-11-01T11:04:02.424Z,12.60
2018-11-01T11:05:02.427Z,12.66
2018-11-01T11:06:02.450Z,12.66
2018-11-01T11:07:02.427Z,12.71
2018-11-01T11:08:02.416Z,12.92
2018-11-01T11:09:02.415Z,12.88
2018-11-01T11:10:02.418Z,13.03
2018-11-01T11:11:02.448Z,13.00
2018-11-01T11:12:02.415Z,12.89
2018-11-01T11:13:02.419Z,12.75
2018-11-01T11:14:02.416Z,12.45
2018-11-01T11:15:02.419Z,12.39
2018-11-01T11:16:02.444Z,12.29
2018-11-01T11:17:02.416Z,12.21
2018-11-01T11:18:02.417Z,12.24
2018-11-01T11:19:02.411Z,12.08
2018-11-01T11:20:02.481Z,12.06
2018-11-01T11:21:02.825Z,12.01
2018-11-01T11:22:02.411Z,12.19
2018-11-01T11:23:02.416Z,12.38
2018-11-01T11:24:02.414Z,12.46
2018-11-01T11:25:02.421Z,12.54
2018-11-01T11:26:02.442Z,12.54
2018-11-01T11:27:02.414Z,12.57
2018-11-01T11:28:02.408Z,12.64
2018-11-01T11:29:02.421Z,12.57
2018-11-01T11:30:02.484Z,12.34
2018-11-01T11:31:02.439Z,12.57
2018-11-01T11:32:02.403Z,12.44
2018-11-01T11:33:02.414Z,12.48
2018-11-01T11:34:02.407Z,12.54
2018-11-01T11:35:02.435Z,12.48
2018-11-01T11:36:02.476Z,12.34
2018-11-01T11:37:02.405Z,12.45
2018-11-01T11:38:02.403Z,12.23
2018-11-01T11:39:02.486Z,12.16
2018-11-01T11:40:02.435Z,12.21
2018-11-01T11:41:02.405Z,12.46
2018-11-01T11:42:02.432Z,12.54
2018-11-01T11:43:02.410Z,12.57
2018-11-01T11:44:02.399Z,12.67
2018-11-01T11:45:02.400Z,12.74
2018-11-01T11:46:02.426Z,12.89
2018-11-01T11:47:02.399Z,12.92
2018-11-01T11:48:02.407Z,12.82
2018-11-01T11:49:02.397Z,12.78
2018-11-01T11:50:02.426Z,12.77
2018-11-01T11:51:02.401Z,12.82
2018-11-01T11:52:02.396Z,12.77
2018-11-01T11:53:02.394Z,12.89
2018-11-01T11:54:02.395Z,12.85
2018-11-01T11:55:02.429Z,12.82
2018-11-01T11:56:02.397Z,12.88
2018-11-01T11:57:02.411Z,12.89
2018-11-01T11:58:02.394Z,12.89
2018-11-01T11:59:02.390Z,12.89
2018-11-01T12:00:02.419Z,12.87
2018-11-01T12:01:02.400Z,12.89
2018-11-01T12:02:02.396Z,12.82
2018-11-01T12:03:02.393Z,12.85
2018-11-01T12:05:02.423Z,12.79
2018-11-01T12:06:02.495Z,12.95
2018-11-01T12:07:02.392Z,12.81
2018-11-01T12:08:02.390Z,12.92
2018-11-01T12:09:02.380Z,12.87
2018-11-01T12:10:02.419Z,12.79
2018-11-01T12:11:02.389Z,12.79
2018-11-01T12:12:02.417Z,12.75
2018-11-01T12:13:02.409Z,12.71
2018-11-01T12:14:02.402Z,12.70
2018-11-01T12:15:02.381Z,12.87
2018-11-01T12:16:02.410Z,13.03
2018-11-01T12:17:02.387Z,13.18
2018-11-01T12:18:02.385Z,13.24
2018-11-01T12:19:02.389Z,13.37
2018-11-01T12:20:02.410Z,13.47
2018-11-01T12:21:02.381Z,13.49
2018-11-01T12:22:02.409Z,13.61
2018-11-01T12:23:02.382Z,13.52
2018-11-01T12:24:02.379Z,13.56
2018-11-01T12:25:02.386Z,13.61
2018-11-01T12:26:02.410Z,13.49
2018-11-01T12:27:02.384Z,13.41
2018-11-01T12:28:02.380Z,13.32
2018-11-01T12:29:02.492Z,13.30
2018-11-01T12:30:02.411Z,13.29
2018-11-01T12:31:02.378Z,13.24
2018-11-01T12:32:02.382Z,13.29
2018-11-01T12:33:02.377Z,13.27
2018-11-01T12:34:02.377Z,13.21
2018-11-01T12:35:02.415Z,13.04
2018-11-01T12:36:02.480Z,12.82
2018-11-01T12:37:02.399Z,12.77
2018-11-01T12:38:02.382Z,12.79
2018-11-01T12:39:02.375Z,12.82
2018-11-01T12:40:02.372Z,12.82
2018-11-01T12:41:02.403Z,12.85
2018-11-01T12:42:02.371Z,12.92
2018-11-01T12:43:02.374Z,12.96
2018-11-01T12:44:02.369Z,13.00
2018-11-01T12:45:02.372Z,13.09
2018-11-01T12:46:02.399Z,13.18
2018-11-01T12:47:02.374Z,13.27
2018-11-01T12:48:02.370Z,13.24
2018-11-01T12:49:02.372Z,13.21
2018-11-01T12:50:02.530Z,13.17
2018-11-01T12:51:02.375Z,13.09
2018-11-01T12:52:02.371Z,13.15
2018-11-01T12:53:02.371Z,13.29
2018-11-01T12:54:02.375Z,13.30
2018-11-01T12:55:02.401Z,13.52
2018-11-01T12:56:02.395Z,13.59
2018-11-01T12:57:02.372Z,13.77
2018-11-01T12:58:02.370Z,13.83
2018-11-01T12:59:02.367Z,13.87
2018-11-01T13:00:03.175Z,13.91
2018-11-01T13:01:02.401Z,13.88
2018-11-01T13:02:02.368Z,13.96
2018-11-01T13:03:02.367Z,13.95
2018-11-01T13:04:02.367Z,13.87
2018-11-01T13:05:02.367Z,14.01
2018-11-01T13:06:02.395Z,13.89
2018-11-01T13:07:03.168Z,13.98
2018-11-01T13:08:02.362Z,13.99